createdAt,value
2024-01-06T00:02:00.627Z,4.20
2024-01-06T00:04:27.167Z,4.25
2024-01-06T00:06:53.498Z,3.95
2024-01-06T00:09:19.707Z,4.68
2024-01-06T00:11:45.909Z,5.25
2024-01-06T00:14:12.071Z,5.20
2024-01-06T00:16:38.226Z,5.18
2024-01-06T00:19:04.508Z,5.80
2024-01-06T00:21:30.912Z,5.07
2024-01-06T00:23:57.100Z,4.75
2024-01-06T00:26:23.288Z,4.25
2024-01-06T00:28:49.481Z,4.25
2024-01-06T00:31:15.997Z,4.45
2024-01-06T00:33:42.294Z,4.35
2024-01-06T00:36:08.590Z,3.38
2024-01-06T00:38:34.770Z,3.30
2024-01-06T00:41:01.207Z,3.58
2024-01-06T00:43:27.650Z,4.45
2024-01-06T00:45:54.091Z,4.00
2024-01-06T00:48:20.688Z,3.90
2024-01-06T00:50:46.969Z,4.10
2024-01-06T00:53:13.239Z,4.00
2024-01-06T00:55:39.419Z,3.70
2024-01-06T00:58:05.824Z,4.18
2024-01-06T01:00:32.104Z,4.20
2024-01-06T01:02:58.320Z,4.75
2024-01-06T01:05:24.494Z,4.38
2024-01-06T01:07:50.709Z,4.20
2024-01-06T01:10:17.171Z,3.90
2024-01-06T01:12:43.382Z,4.93
2024-01-06T01:15:09.643Z,4.40
2024-01-06T01:17:35.942Z,5.28
2024-01-06T01:20:02.386Z,5.30
2024-01-06T01:22:28.584Z,4.72
2024-01-06T01:24:54.767Z,4.80
2024-01-06T01:27:20.944Z,3.95
2024-01-06T01:29:47.140Z,4.38
2024-01-06T01:32:13.638Z,4.90
2024-01-06T01:34:39.873Z,4.38
2024-01-06T01:37:06.133Z,5.35
2024-01-06T01:39:32.433Z,4.90
2024-01-06T01:41:58.574Z,4.57
2024-01-06T01:44:24.781Z,4.68
2024-01-06T01:46:50.958Z,4.05
2024-01-06T01:49:17.699Z,5.40
2024-01-06T01:51:44.075Z,6.13
2024-01-06T01:54:10.311Z,4.28
2024-01-06T01:56:36.522Z,4.60
2024-01-06T01:59:02.812Z,4.07
2024-01-06T02:01:29.289Z,4.50
2024-01-06T02:03:55.551Z,4.70
2024-01-06T02:06:21.804Z,3.63
2024-01-06T02:08:48.027Z,5.45
2024-01-06T02:11:14.470Z,4.22
2024-01-06T02:13:40.757Z,5.03
2024-01-06T02:16:06.971Z,5.82
2024-01-06T02:18:33.502Z,6.72
2024-01-06T02:20:59.864Z,6.75
2024-01-06T02:23:26.073Z,6.45
2024-01-06T02:25:52.254Z,6.63
2024-01-06T02:28:18.498Z,4.22
2024-01-06T02:30:44.830Z,4.82
2024-01-06T02:33:11.410Z,3.78
2024-01-06T02:35:37.626Z,4.90
2024-01-06T02:38:04.023Z,3.70
2024-01-06T02:40:30.267Z,4.57
2024-01-06T02:42:56.460Z,4.05
2024-01-06T02:45:22.967Z,3.55
2024-01-06T02:47:49.305Z,3.67
2024-01-06T02:50:15.794Z,3.78
2024-01-06T02:52:41.965Z,3.30
2024-01-06T02:55:08.383Z,4.00
2024-01-06T02:57:34.572Z,3.65
2024-01-06T03:00:00.736Z,3.35
2024-01-06T03:02:27.153Z,3.50
2024-01-06T03:04:53.584Z,3.63
2024-01-06T03:07:19.981Z,3.90
2024-01-06T03:09:46.504Z,4.38
2024-01-06T03:12:12.817Z,4.05
2024-01-06T03:14:38.996Z,3.22
2024-01-06T03:17:05.420Z,3.92
2024-01-06T03:19:32.000Z,3.30
2024-01-06T03:21:58.543Z,3.28
2024-01-06T03:24:24.963Z,3.45
2024-01-06T03:26:51.148Z,3.35
2024-01-06T03:29:17.322Z,3.70
2024-01-06T03:31:43.663Z,3.65
2024-01-06T03:34:09.986Z,3.67
2024-01-06T03:36:36.257Z,4.30
2024-01-06T03:39:02.424Z,3.95
2024-01-06T03:41:28.581Z,3.72
2024-01-06T03:43:54.777Z,3.92
2024-01-06T03:46:21.166Z,4.50
2024-01-06T03:48:47.491Z,3.83
2024-01-06T03:51:13.823Z,4.68
2024-01-06T03:53:40.014Z,5.05
2024-01-06T03:56:06.360Z,4.18
2024-01-06T03:58:32.621Z,4.55
2024-01-06T04:00:58.843Z,4.75
2024-01-06T04:03:25.038Z,4.78
2024-01-06T04:05:51.512Z,4.38
2024-01-06T04:08:17.987Z,6.00
2024-01-06T04:10:44.207Z,4.57
2024-01-06T04:13:10.611Z,5.35
2024-01-06T04:15:36.885Z,5.55
2024-01-06T04:18:03.201Z,6.30
2024-01-06T04:20:29.403Z,5.93
2024-01-06T04:22:55.554Z,6.32
2024-01-06T04:25:21.695Z,7.05
2024-01-06T04:27:47.940Z,6.50
2024-01-06T04:30:14.559Z,7.10
2024-01-06T04:32:41.019Z,6.88
2024-01-06T04:35:07.223Z,6.88
2024-01-06T04:37:33.637Z,6.75
2024-01-06T04:40:00.118Z,6.97
2024-01-06T04:42:26.548Z,7.78
2024-01-06T04:44:52.746Z,7.28
2024-01-06T04:47:18.893Z,7.80
2024-01-06T04:49:45.144Z,6.60
2024-01-06T04:52:11.395Z,7.40
2024-01-06T04:54:37.764Z,9.02
2024-01-06T04:57:04.088Z,9.07
2024-01-06T04:59:30.259Z,8.32
2024-01-06T05:01:56.508Z,8.32
2024-01-06T05:04:22.972Z,9.40
2024-01-06T05:06:49.295Z,4.55
2024-01-06T05:09:15.589Z,8.73
2024-01-06T05:11:42.031Z,8.25
2024-01-06T05:14:08.204Z,8.20
2024-01-06T05:16:34.630Z,8.35
2024-01-06T05:19:00.938Z,7.80
2024-01-06T05:21:27.451Z,8.50
2024-01-06T05:23:53.906Z,7.75
2024-01-06T05:26:20.313Z,7.93
2024-01-06T05:28:46.484Z,8.77
2024-01-06T05:31:12.707Z,7.45
2024-01-06T05:33:39.280Z,8.93
2024-01-06T05:36:05.495Z,7.97
2024-01-06T05:38:31.669Z,6.63
2024-01-06T05:40:58.144Z,7.47
2024-01-06T05:43:24.347Z,7.80
2024-01-06T05:45:50.685Z,7.57
2024-01-06T05:48:16.977Z,7.38
2024-01-06T05:50:43.316Z,6.60
2024-01-06T05:53:09.588Z,7.85
2024-01-06T05:55:35.864Z,7.90
2024-01-06T05:58:02.260Z,7.00
2024-01-06T06:00:28.504Z,6.75
2024-01-06T06:02:54.698Z,6.57
2024-01-06T06:05:20.851Z,6.72
2024-01-06T06:07:47.038Z,6.78
2024-01-06T06:10:13.354Z,6.45
2024-01-06T06:12:39.733Z,6.30
2024-01-06T06:15:06.179Z,6.32
2024-01-06T06:17:32.512Z,6.57
2024-01-06T06:19:58.802Z,6.25
2024-01-06T06:22:25.017Z,5.00
2024-01-06T06:24:51.444Z,6.47
2024-01-06T06:27:17.901Z,5.55
2024-01-06T06:29:44.189Z,4.72
2024-01-06T06:32:10.347Z,5.40
2024-01-06T06:34:36.552Z,5.15
2024-01-06T06:37:02.868Z,5.05
2024-01-06T06:39:29.037Z,4.93
2024-01-06T06:41:55.267Z,5.15
2024-01-06T06:44:26.052Z,5.50
2024-01-06T06:46:52.332Z,5.30
2024-01-06T06:49:18.568Z,5.35
2024-01-06T06:51:44.886Z,5.82
2024-01-06T06:54:11.202Z,5.82
2024-01-06T06:56:37.427Z,5.15
2024-01-06T06:59:03.869Z,5.90
2024-01-06T07:01:32.259Z,4.75
2024-01-06T07:03:59.774Z,6.43
2024-01-06T07:06:26.020Z,5.93
2024-01-06T07:08:52.464Z,5.35
2024-01-06T07:11:18.610Z,6.28
2024-01-06T07:13:44.768Z,5.88
2024-01-06T07:16:17.999Z,6.60
2024-01-06T07:18:45.840Z,6.35
2024-01-06T07:21:12.398Z,6.63
2024-01-06T07:23:38.590Z,5.80
2024-01-06T07:26:04.851Z,6.13
2024-01-06T07:28:31.147Z,6.47
2024-01-06T07:30:57.520Z,5.63
2024-01-06T07:33:23.846Z,4.68
2024-01-06T07:35:50.082Z,6.20
2024-01-06T07:38:16.288Z,4.85
2024-01-06T07:40:42.526Z,5.95
2024-01-06T07:43:08.724Z,5.28
2024-01-06T07:45:35.154Z,5.32
2024-01-06T07:48:01.498Z,5.55
2024-01-06T07:50:27.718Z,5.03
2024-01-06T07:52:54.143Z,5.38
2024-01-06T07:55:20.405Z,5.00
2024-01-06T07:57:46.575Z,5.55
2024-01-06T08:00:12.802Z,5.63
2024-01-06T08:02:39.308Z,6.20
2024-01-06T08:05:05.486Z,4.68
2024-01-06T08:07:31.663Z,4.85
2024-01-06T08:09:57.899Z,5.50
2024-01-06T08:12:24.170Z,5.50
2024-01-06T08:14:50.381Z,6.28
2024-01-06T08:17:19.505Z,6.43
2024-01-06T08:19:46.162Z,5.55
2024-01-06T08:22:12.385Z,5.93
2024-01-06T08:24:38.578Z,5.55
2024-01-06T08:27:04.852Z,6.43
2024-01-06T08:29:31.282Z,6.15
2024-01-06T08:31:57.660Z,6.25
2024-01-06T08:34:24.390Z,6.68
2024-01-06T08:36:50.682Z,7.63
2024-01-06T08:39:16.996Z,7.45
2024-01-06T08:41:43.528Z,6.78
2024-01-06T08:44:09.695Z,7.65
2024-01-06T08:46:35.905Z,7.25
2024-01-06T08:49:02.181Z,6.80
2024-01-06T08:51:28.492Z,7.40
2024-01-06T08:53:55.063Z,6.70
2024-01-06T08:56:21.256Z,6.63
2024-01-06T08:58:47.410Z,6.50
2024-01-06T09:01:13.719Z,7.32
2024-01-06T09:03:40.190Z,7.47
2024-01-06T09:06:06.511Z,6.60
2024-01-06T09:08:32.827Z,7.22
2024-01-06T09:10:58.993Z,7.00
2024-01-06T09:13:25.142Z,6.88
2024-01-06T09:15:51.323Z,6.13
2024-01-06T09:18:17.743Z,5.47
2024-01-06T09:20:44.304Z,7.28
2024-01-06T09:23:10.453Z,6.35
2024-01-06T09:25:36.894Z,7.05
2024-01-06T09:28:03.103Z,7.72
2024-01-06T09:30:29.443Z,6.25
2024-01-06T09:32:55.706Z,8.13
2024-01-06T09:35:21.987Z,7.13
2024-01-06T09:37:48.194Z,7.72
2024-01-06T09:40:14.382Z,9.18
2024-01-06T09:42:40.597Z,8.93
2024-01-06T09:45:06.842Z,9.95
2024-01-06T09:47:33.331Z,9.45
2024-01-06T09:49:59.559Z,7.63
2024-01-06T09:52:25.993Z,8.55
2024-01-06T09:54:52.486Z,8.40
2024-01-06T09:57:18.840Z,7.93
2024-01-06T09:59:45.302Z,7.53
2024-01-06T10:02:11.495Z,4.68
2024-01-06T10:04:37.862Z,7.00
2024-01-06T10:07:04.360Z,6.18
2024-01-06T10:09:30.637Z,6.28
2024-01-06T10:11:56.867Z,5.60
2024-01-06T10:14:23.031Z,6.13
2024-01-06T10:16:49.475Z,5.22
2024-01-06T10:19:15.713Z,4.97
2024-01-06T10:21:42.235Z,4.90
2024-01-06T10:24:08.501Z,3.25
2024-01-06T10:26:34.697Z,3.47
2024-01-06T10:29:00.836Z,3.10
2024-01-06T10:31:27.065Z,3.58
2024-01-06T10:33:53.520Z,3.78
2024-01-06T10:36:19.791Z,3.78
2024-01-06T10:38:45.976Z,4.30
2024-01-06T10:41:12.130Z,3.67
2024-01-06T10:43:38.289Z,3.58
2024-01-06T10:46:04.706Z,3.97
2024-01-06T10:48:30.970Z,3.60
2024-01-06T10:50:57.210Z,4.70
2024-01-06T10:53:23.414Z,4.20
2024-01-06T10:55:50.532Z,4.40
2024-01-06T10:58:17.787Z,4.38
2024-01-06T11:00:44.261Z,4.22
2024-01-06T11:03:10.534Z,5.43
2024-01-06T11:05:36.831Z,5.47
2024-01-06T11:08:03.162Z,8.00
2024-01-06T11:10:29.377Z,5.90
2024-01-06T11:12:55.586Z,4.50
2024-01-06T11:15:21.850Z,4.68
2024-01-06T11:17:48.381Z,4.75
2024-01-06T11:20:14.807Z,4.80
2024-01-06T11:22:41.429Z,4.47
2024-01-06T11:25:07.758Z,4.60
2024-01-06T11:27:34.003Z,4.43
2024-01-06T11:30:02.996Z,6.07
2024-01-06T11:32:29.223Z,7.95
2024-01-06T11:34:55.514Z,5.07
2024-01-06T11:37:21.724Z,5.85
2024-01-06T11:39:47.924Z,5.18
2024-01-06T11:42:14.136Z,4.72
2024-01-06T11:44:40.315Z,4.82
2024-01-06T11:47:06.494Z,4.45
2024-01-06T11:49:32.711Z,3.85
2024-01-06T11:51:58.993Z,5.57
2024-01-06T11:54:25.231Z,5.43
2024-01-06T11:56:51.651Z,5.40
2024-01-06T11:59:18.084Z,5.80
2024-01-06T12:01:44.367Z,6.47
2024-01-06T12:04:10.617Z,6.25
2024-01-06T12:06:36.923Z,4.47
2024-01-06T12:09:03.146Z,5.45
2024-01-06T12:11:29.340Z,5.10
2024-01-06T12:13:55.511Z,8.40
2024-01-06T12:16:21.682Z,6.45
2024-01-06T12:18:48.203Z,7.10
2024-01-06T12:21:14.721Z,4.50
2024-01-06T12:23:40.876Z,4.43
2024-01-06T12:26:07.080Z,5.30
2024-01-06T12:28:33.465Z,4.80
2024-01-06T12:30:59.707Z,5.13
2024-01-06T12:33:26.386Z,5.75
2024-01-06T12:35:52.609Z,4.30
2024-01-06T12:38:18.765Z,5.18
2024-01-06T12:40:44.946Z,4.22
2024-01-06T12:43:11.342Z,4.97
2024-01-06T12:45:37.557Z,5.72
2024-01-06T12:48:03.945Z,6.13
2024-01-06T12:50:30.352Z,6.05
2024-01-06T12:52:56.532Z,6.63
2024-01-06T12:55:22.904Z,7.63
2024-01-06T12:57:49.154Z,7.10
2024-01-06T13:00:15.443Z,6.18
2024-01-06T13:02:41.677Z,7.38
2024-01-06T13:05:07.944Z,7.22
2024-01-06T13:07:34.161Z,6.50
2024-01-06T13:10:00.553Z,7.82
2024-01-06T13:12:26.767Z,6.70
2024-01-06T13:14:53.219Z,7.57
2024-01-06T13:17:19.752Z,6.63
2024-01-06T13:19:45.950Z,6.30
2024-01-06T13:22:12.390Z,6.65
2024-01-06T13:24:38.594Z,6.15
2024-01-06T13:27:04.768Z,6.78
2024-01-06T13:29:30.914Z,6.38
2024-01-06T13:31:57.407Z,7.10
2024-01-06T13:34:24.023Z,6.40
2024-01-06T13:36:50.292Z,6.47
2024-01-06T13:39:16.556Z,6.43
2024-01-06T13:41:42.833Z,6.15
2024-01-06T13:44:09.038Z,6.32
2024-01-06T13:46:35.200Z,5.20
2024-01-06T13:49:01.473Z,5.43
2024-01-06T13:51:27.677Z,5.68
2024-01-06T13:53:54.067Z,6.20
2024-01-06T13:56:20.240Z,5.88
2024-01-06T13:58:46.391Z,6.75
2024-01-06T14:01:12.997Z,7.43
2024-01-06T14:03:39.312Z,7.22
2024-01-06T14:06:05.647Z,5.65
2024-01-06T14:08:31.894Z,5.20
2024-01-06T14:10:58.054Z,6.13
2024-01-06T14:13:24.232Z,5.68
2024-01-06T14:15:50.545Z,6.43
2024-01-06T14:18:16.856Z,5.75
2024-01-06T14:20:43.106Z,4.47
2024-01-06T14:23:09.287Z,4.78
2024-01-06T14:25:35.503Z,5.55
2024-01-06T14:28:01.708Z,5.15
2024-01-06T14:30:28.386Z,5.85
2024-01-06T14:32:54.784Z,4.88
2024-01-06T14:35:20.969Z,4.97
2024-01-06T14:37:47.392Z,5.13
2024-01-06T14:40:13.590Z,5.05
2024-01-06T14:42:39.809Z,4.65
2024-01-06T14:45:06.258Z,5.20
2024-01-06T14:47:32.469Z,5.15
2024-01-06T14:49:58.766Z,5.38
2024-01-06T14:52:25.056Z,5.65
2024-01-06T14:54:51.309Z,6.15
2024-01-06T14:57:17.802Z,3.97
2024-01-06T14:59:44.286Z,5.43
2024-01-06T15:02:10.531Z,4.65
2024-01-06T15:04:36.747Z,6.40
2024-01-06T15:07:03.017Z,6.07
2024-01-06T15:09:29.370Z,5.07
2024-01-06T15:11:55.564Z,5.22
2024-01-06T15:14:21.800Z,5.20
2024-01-06T15:16:48.192Z,5.82
2024-01-06T15:19:14.652Z,5.45
2024-01-06T15:21:40.860Z,4.82
2024-01-06T15:24:07.098Z,4.18
2024-01-06T15:26:33.308Z,6.03
2024-01-06T15:28:59.583Z,4.82
2024-01-06T15:31:26.095Z,4.43
2024-01-06T15:33:52.489Z,3.95
2024-01-06T15:36:18.761Z,4.10
2024-01-06T15:38:45.123Z,4.80
2024-01-06T15:41:11.565Z,3.42
2024-01-06T15:43:37.988Z,3.90
2024-01-06T15:46:04.247Z,4.55
2024-01-06T15:48:30.529Z,3.45
2024-01-06T15:50:56.747Z,2.53
2024-01-06T15:53:22.937Z,3.00
2024-01-06T15:55:49.115Z,3.40
2024-01-06T15:58:15.281Z,2.65
2024-01-06T16:00:41.531Z,3.17
2024-01-06T16:03:07.977Z,3.30
2024-01-06T16:05:34.451Z,3.42
2024-01-06T16:08:00.635Z,3.47
2024-01-06T16:10:26.786Z,4.45
2024-01-06T16:12:53.274Z,4.30
2024-01-06T16:15:19.539Z,3.88
2024-01-06T16:17:45.832Z,4.75
2024-01-06T16:20:12.469Z,3.85
2024-01-06T16:22:38.668Z,4.00
2024-01-06T16:25:04.979Z,3.47
2024-01-06T16:27:31.539Z,3.25
2024-01-06T16:29:57.697Z,3.20
2024-01-06T16:32:23.886Z,3.83
2024-01-06T16:34:50.151Z,3.88
2024-01-06T16:37:16.448Z,3.40
2024-01-06T16:39:42.642Z,3.67
2024-01-06T16:42:09.067Z,3.75
2024-01-06T16:44:35.520Z,4.68
2024-01-06T16:47:01.717Z,4.95
2024-01-06T16:49:27.890Z,4.00
2024-01-06T16:51:54.156Z,2.78
2024-01-06T16:54:20.382Z,3.67
2024-01-06T16:56:46.557Z,3.42
2024-01-06T16:59:16.537Z,2.97
2024-01-06T17:01:43.386Z,3.25
2024-01-06T17:04:09.637Z,3.22
2024-01-06T17:06:35.913Z,3.88
2024-01-06T17:09:02.130Z,2.85
2024-01-06T17:11:28.313Z,3.20
2024-01-06T17:13:54.455Z,3.78
2024-01-06T17:16:20.637Z,3.03
2024-01-06T17:18:47.121Z,2.45
2024-01-06T17:21:13.424Z,4.25
2024-01-06T17:23:39.575Z,3.20
2024-01-06T17:26:05.804Z,4.75
2024-01-06T17:28:32.027Z,3.30
2024-01-06T17:30:58.270Z,3.92
2024-01-06T17:33:24.898Z,3.50
2024-01-06T17:35:51.237Z,3.05
2024-01-06T17:38:17.534Z,4.70
2024-01-06T17:40:43.854Z,3.85
2024-01-06T17:43:10.283Z,3.60
2024-01-06T17:45:36.582Z,4.20
2024-01-06T17:48:02.914Z,3.90
2024-01-06T17:50:29.274Z,4.93
2024-01-06T17:52:55.488Z,4.30
2024-01-06T17:55:21.897Z,4.60
2024-01-06T17:57:48.219Z,3.95
2024-01-06T18:00:14.432Z,4.50
2024-01-06T18:02:40.648Z,3.80
2024-01-06T18:05:07.208Z,3.78
2024-01-06T18:07:33.480Z,4.10
2024-01-06T18:09:59.882Z,4.40
2024-01-06T18:12:26.449Z,3.92
2024-01-06T18:14:52.647Z,2.58
2024-01-06T18:17:18.894Z,3.30
2024-01-06T18:19:45.239Z,4.70
2024-01-06T18:22:11.578Z,4.68
2024-01-06T18:24:37.855Z,3.78
2024-01-06T18:27:04.033Z,4.10
2024-01-06T18:29:30.340Z,3.20
2024-01-06T18:31:56.516Z,4.30
2024-01-06T18:34:23.003Z,4.20
2024-01-06T18:36:49.292Z,4.22
2024-01-06T18:39:15.490Z,3.03
2024-01-06T18:41:41.762Z,4.88
2024-01-06T18:44:07.930Z,4.38
2024-01-06T18:46:34.350Z,5.07
2024-01-06T18:49:00.605Z,4.40
2024-01-06T18:51:26.870Z,4.13
2024-01-06T18:53:53.094Z,5.95
2024-01-06T18:56:19.295Z,5.50
2024-01-06T18:58:45.455Z,5.50
2024-01-06T19:01:11.738Z,5.70
2024-01-06T19:03:37.983Z,5.75
2024-01-06T19:06:04.212Z,6.13
2024-01-06T19:08:30.433Z,6.03
2024-01-06T19:10:56.594Z,6.70
2024-01-06T19:13:22.785Z,6.80
2024-01-06T19:15:48.968Z,6.55
2024-01-06T19:18:15.434Z,7.82
2024-01-06T19:20:41.999Z,7.68
2024-01-06T19:23:09.951Z,7.70
2024-01-06T19:25:36.733Z,8.30
2024-01-06T19:28:03.115Z,9.07
2024-01-06T19:30:29.375Z,8.18
2024-01-06T19:32:55.663Z,7.68
2024-01-06T19:35:21.839Z,6.90
2024-01-06T19:37:48.039Z,6.63
2024-01-06T19:40:14.278Z,7.63
2024-01-06T19:42:40.650Z,6.95
2024-01-06T19:45:06.900Z,6.65
2024-01-06T19:47:33.140Z,6.57
2024-01-06T19:49:59.465Z,8.32
2024-01-06T19:52:25.971Z,8.07
2024-01-06T19:54:52.480Z,5.97
2024-01-06T19:57:18.976Z,7.38
2024-01-06T19:59:45.216Z,6.75
2024-01-06T20:02:11.363Z,6.45
2024-01-06T20:04:37.733Z,5.93
2024-01-06T20:07:04.074Z,4.97
2024-01-06T20:09:30.346Z,6.07
2024-01-06T20:11:56.529Z,5.57
2024-01-06T20:14:22.700Z,5.85
2024-01-06T20:16:48.878Z,6.65
2024-01-06T20:19:15.156Z,6.10
2024-01-06T20:21:41.385Z,5.72
2024-01-06T20:24:07.824Z,5.97
2024-01-06T20:26:34.090Z,5.85
2024-01-06T20:29:00.510Z,5.88
2024-01-06T20:31:26.800Z,5.68
2024-01-06T20:33:53.085Z,5.68
2024-01-06T20:36:19.628Z,5.53
2024-01-06T20:38:45.894Z,4.22
2024-01-06T20:41:12.346Z,4.93
2024-01-06T20:43:38.672Z,6.10
2024-01-06T20:46:05.135Z,8.70
2024-01-06T20:48:31.549Z,8.30
2024-01-06T20:50:57.775Z,5.97
2024-01-06T20:53:23.940Z,7.03
2024-01-06T20:55:50.149Z,4.88
2024-01-06T20:58:16.408Z,6.20
2024-01-06T21:00:42.784Z,7.57
2024-01-06T21:03:09.283Z,6.88
2024-01-06T21:05:35.434Z,7.72
2024-01-06T21:08:01.610Z,6.05
2024-01-06T21:10:27.802Z,5.82
2024-01-06T21:12:54.051Z,6.35
2024-01-06T21:15:20.372Z,6.57
2024-01-06T21:17:46.627Z,6.55
2024-01-06T21:20:12.803Z,6.55
2024-01-06T21:22:39.087Z,7.45
2024-01-06T21:25:05.421Z,7.90
2024-01-06T21:27:31.669Z,7.60
2024-01-06T21:29:58.128Z,8.02
2024-01-06T21:32:24.493Z,8.20
2024-01-06T21:34:50.749Z,9.68
2024-01-06T21:37:17.226Z,7.78
2024-01-06T21:39:43.479Z,6.82
2024-01-06T21:42:09.686Z,4.38
2024-01-06T21:44:35.908Z,6.40
2024-01-06T21:47:04.124Z,7.40
2024-01-06T21:49:30.980Z,6.07
2024-01-06T21:51:57.305Z,8.00
2024-01-06T21:54:23.543Z,8.57
2024-01-06T21:56:49.924Z,6.50
2024-01-06T21:59:16.145Z,7.68
2024-01-06T22:01:42.578Z,7.90
2024-01-06T22:04:09.168Z,5.20
2024-01-06T22:06:35.389Z,6.68
2024-01-06T22:09:10.496Z,6.70
2024-01-06T22:11:38.978Z,7.40
2024-01-06T22:14:05.192Z,5.80
2024-01-06T22:16:31.397Z,5.18
2024-01-06T22:18:57.712Z,5.45
2024-01-06T22:21:23.987Z,6.43
2024-01-06T22:23:50.167Z,6.13
2024-01-06T22:26:16.410Z,6.88
2024-01-06T22:28:42.650Z,6.47
2024-01-06T22:31:09.015Z,6.35
2024-01-06T22:33:35.281Z,5.78
2024-01-06T22:36:01.506Z,6.25
2024-01-06T22:38:30.489Z,5.45
2024-01-06T22:40:59.455Z,7.28
2024-01-06T22:43:25.952Z,5.38
2024-01-06T22:45:52.147Z,5.80
2024-01-06T22:48:18.432Z,6.63
2024-01-06T22:50:44.657Z,5.93
2024-01-06T22:53:11.065Z,4.78
2024-01-06T22:55:37.278Z,4.90
2024-01-06T22:58:03.577Z,6.60
2024-01-06T23:00:30.064Z,5.93
2024-01-06T23:02:56.547Z,4.18
2024-01-06T23:05:22.702Z,6.30
2024-01-06T23:07:48.870Z,6.60
2024-01-06T23:10:15.088Z,5.20
2024-01-06T23:12:41.255Z,4.80
2024-01-06T23:15:07.700Z,5.30
2024-01-06T23:17:33.888Z,5.47
2024-01-06T23:20:00.419Z,5.68
2024-01-06T23:22:26.606Z,6.82
2024-01-06T23:24:52.839Z,4.82
2024-01-06T23:27:19.029Z,4.75
2024-01-06T23:29:45.291Z,5.30
2024-01-06T23:32:11.526Z,4.97
2024-01-06T23:34:42.623Z,3.17
2024-01-06T23:37:09.655Z,3.83
2024-01-06T23:39:35.849Z,5.03
2024-01-06T23:42:01.998Z,4.70
2024-01-06T23:44:28.142Z,3.97
2024-01-06T23:46:54.306Z,3.60
2024-01-06T23:49:20.783Z,3.97
2024-01-06T23:51:47.038Z,5.75
2024-01-06T23:54:13.453Z,5.03
2024-01-06T23:56:39.771Z,4.93
2024-01-06T23:59:05.914Z,6.05
